KBTV

Burlington International Airport

Burlington, Vermont, USA
KBTV 241720Z 2418/2518 VRB05KT P6SM FEW045 FM250100 14012KT P6SM FEW200 FM251200 15012G24KT 3SM -RA BR OVC040
Issued Valid From Valid To
Sep-24 @ 17:20 UTC
(2 hours ago)
Sep-24 @ 18:00 UTC
(an hour ago)
Sep-25 @ 18:00 UTC
(in 23 hours)
Sep-24 @ 18:00 to Sep-25 @ 01:00
KBTV 241720Z 2418/2518 VRB05KT P6SM FEW045
Wind Visibility Clouds
Variable at 5 knots Greater than 6 miles
  • Few at 4,500' AGL
From Sep-25 @ 01:00 to Sep-25 @ 12:00
FM250100 14012KT P6SM FEW200
Wind Visibility Clouds
140° at 12 knots Greater than 6 miles
  • Few at 20,000' AGL
From Sep-25 @ 12:00 to Sep-25 @ 18:00
FM251200 15012G24KT 3SM -RA BR OVC040
Wind Visibility Clouds Conditions
150° at 12 knots
 Gusting to 24 knots
3 miles
  • Overcast at 4,000' AGL
  • Light Rain
  • Mist
KBTV 241720Z 2418/2518 VRB05KT P6SM FEW045 FM250100 14012KT P6SM FEW200 FM251200 15012G24KT 3SM -RA BR OVC040
Issued Sep-24 @ 17:20 UTC
(2 hours ago)
Valid From Sep-24 @ 18:00 UTC
(an hour ago)
Valid To Sep-25 @ 18:00 UTC
(in 23 hours)
Sep-24 @ 18:00 - Sep-25 @ 01:00
Wind Visibility
Variable at 5 knots Greater than 6 miles
Clouds
  • Few at 4,500' AGL
From Sep-25 @ 01:00 - Sep-25 @ 12:00
Wind Visibility
140° at 12 knots Greater than 6 miles
Clouds
  • Few at 20,000' AGL
From Sep-25 @ 12:00 - Sep-25 @ 18:00
Wind Visibility
150° at 12 knots
 Gusting to 24 knots
3 miles
Clouds
  • Overcast at 4,000' AGL
Conditions
  • Light Rain
  • Mist